Time;durP1;ratioP1;P1;durP2;ratioP2;P2;SDS_P1;SDS_P2;PMS_P1;PMS_P2;Temp;Humidity;BMP_temperature;BMP_pressure;BME280_temperature;BME280_humidity;BME280_pressure;Samples;Min_cycle;Max_cycle;Signal;HPM_P1;HPM_P2
2021/03/17 00:00:00;;;;;;;2.05;1.80;;;6.40;99.90;;;;;;5095530;28;20292;-74
2021/03/17 00:02:26;;;;;;;1.95;1.83;;;6.40;99.90;;;;;;5094974;28;20711;-74
2021/03/17 00:04:53;;;;;;;2.50;1.67;;;6.40;99.90;;;;;;5095570;28;20205;-74
2021/03/17 00:07:19;;;;;;;3.10;2.25;;;6.30;99.90;;;;;;5094819;28;20752;-74
2021/03/17 00:09:46;;;;;;;2.30;2.10;;;6.30;99.90;;;;;;5095531;28;20292;-73
2021/03/17 00:12:12;;;;;;;3.30;2.33;;;6.20;99.90;;;;;;5095039;28;20355;-73
2021/03/17 00:14:39;;;;;;;4.32;1.63;;;6.30;99.90;;;;;;5094934;28;20298;-73
2021/03/17 00:17:05;;;;;;;4.20;1.95;;;6.30;99.90;;;;;;5095179;28;20198;-73
2021/03/17 00:19:31;;;;;;;2.83;1.90;;;6.20;99.90;;;;;;5095278;28;20293;-74
2021/03/17 00:21:59;;;;;;;3.88;2.28;;;6.30;99.90;;;;;;5095084;28;20238;-74
2021/03/17 00:24:25;;;;;;;3.10;2.13;;;6.30;99.90;;;;;;5095217;28;20205;-74
2021/03/17 00:26:51;;;;;;;2.55;1.80;;;6.40;99.90;;;;;;5094158;28;20308;-75
2021/03/17 00:29:19;;;;;;;3.25;2.10;;;6.40;99.90;;;;;;5094261;28;20209;-72
2021/03/17 00:31:45;;;;;;;2.72;2.40;;;6.40;99.90;;;;;;5094195;28;20208;-74
2021/03/17 00:34:11;;;;;;;3.90;2.20;;;6.30;99.90;;;;;;5093992;28;20273;-73
2021/03/17 00:36:38;;;;;;;2.05;1.85;;;6.40;99.90;;;;;;5094092;28;20194;-73
2021/03/17 00:39:05;;;;;;;3.03;2.03;;;6.30;99.90;;;;;;5093148;28;20571;-73
2021/03/17 00:41:32;;;;;;;2.97;1.80;;;6.30;99.90;;;;;;5093841;28;20633;-73
2021/03/17 00:43:58;;;;;;;2.97;2.00;;;6.30;99.90;;;;;;5093611;28;20612;-76
2021/03/17 00:46:24;;;;;;;2.70;2.03;;;6.40;99.90;;;;;;5093020;28;20264;-76
2021/03/17 00:48:51;;;;;;;2.60;2.20;;;6.40;99.90;;;;;;5093195;28;20206;-75
2021/03/17 00:51:17;;;;;;;2.10;1.90;;;6.40;99.90;;;;;;5093201;28;20297;-72
2021/03/17 00:53:43;;;;;;;2.90;2.00;;;6.40;99.90;;;;;;5093085;28;20226;-74
2021/03/17 00:56:10;;;;;;;3.33;2.05;;;6.40;99.90;;;;;;5092776;28;20568;-76
2021/03/17 00:58:37;;;;;;;4.00;2.35;;;6.40;99.90;;;;;;5093267;28;20230;-75
2021/03/17 01:01:03;;;;;;;3.17;1.80;;;6.40;99.90;;;;;;5093025;28;20289;-75
2021/03/17 01:03:29;;;;;;;4.00;2.65;;;6.40;99.90;;;;;;5092820;28;20703;-77
2021/03/17 01:05:56;;;;;;;4.00;2.15;;;6.20;99.90;;;;;;5092880;28;20620;-76
2021/03/17 01:08:23;;;;;;;4.75;2.85;;;6.20;99.90;;;;;;5092848;28;20237;-74
2021/03/17 01:10:49;;;;;;;4.38;2.42;;;6.10;99.90;;;;;;5092785;28;20293;-76
2021/03/17 01:13:17;;;;;;;3.92;2.60;;;6.10;99.90;;;;;;5092811;28;20233;-75
2021/03/17 01:15:44;;;;;;;3.53;2.30;;;6.20;99.90;;;;;;5092861;28;20584;-76
2021/03/17 01:18:11;;;;;;;3.35;1.80;;;6.20;99.90;;;;;;5092340;28;20194;-72
2021/03/17 01:20:38;;;;;;;3.35;2.30;;;6.10;99.90;;;;;;5092744;28;20202;-72
2021/03/17 01:23:05;;;;;;;5.55;2.30;;;6.00;99.90;;;;;;5092498;28;20280;-73
2021/03/17 01:25:34;;;;;;;4.63;2.53;;;6.00;99.90;;;;;;5092384;28;20206;-73
2021/03/17 01:28:03;;;;;;;3.67;2.50;;;6.00;99.90;;;;;;5092576;28;20221;-72
2021/03/17 01:30:32;;;;;;;4.63;2.90;;;6.00;99.90;;;;;;5092656;28;20198;-72
2021/03/17 01:32:58;;;;;;;4.00;2.17;;;6.10;99.90;;;;;;5092377;28;20222;-72
2021/03/17 01:35:25;;;;;;;4.65;2.90;;;6.00;99.90;;;;;;5092488;28;20682;-76
2021/03/17 01:37:51;;;;;;;4.05;2.40;;;6.10;99.90;;;;;;5092055;28;20285;-76
2021/03/17 01:40:19;;;;;;;3.70;2.35;;;6.20;99.90;;;;;;5092371;28;20206;-76
2021/03/17 01:42:45;;;;;;;3.65;2.75;;;6.20;99.90;;;;;;5092208;28;20222;-77
2021/03/17 01:45:15;;;;;;;4.55;2.25;;;6.20;99.90;;;;;;5093069;28;20213;-77
2021/03/17 01:47:44;;;;;;;4.03;2.65;;;6.10;99.90;;;;;;5092226;28;20658;-77
2021/03/17 01:50:13;;;;;;;3.58;2.35;;;6.10;99.90;;;;;;5093863;28;20615;-77
2021/03/17 01:52:40;;;;;;;3.35;2.22;;;6.00;99.90;;;;;;5093895;28;20230;-75
2021/03/17 01:55:08;;;;;;;4.78;3.10;;;6.00;99.90;;;;;;5092508;28;20205;-75
2021/03/17 01:57:35;;;;;;;2.88;1.90;;;6.00;99.90;;;;;;5092133;28;20277;-76
2021/03/17 02:00:04;;;;;;;2.97;2.30;;;6.00;99.90;;;;;;5092226;28;20202;-76
2021/03/17 02:02:32;;;;;;;3.88;2.42;;;5.90;99.90;;;;;;5092056;28;20596;-76
2021/03/17 02:04:59;;;;;;;3.42;2.65;;;5.90;99.90;;;;;;5092840;28;20202;-74
2021/03/17 02:07:25;;;;;;;3.58;2.47;;;5.90;99.90;;;;;;5094434;28;20707;-70
2021/03/17 02:09:52;;;;;;;5.38;2.80;;;5.90;99.90;;;;;;5093857;28;20206;-70
2021/03/17 02:12:31;;;;;;;3.85;2.45;;;5.90;99.90;;;;;;5093728;28;20313;-71
2021/03/17 02:15:08;;;;;;;3.63;2.70;;;5.90;99.90;;;;;;5094394;28;20194;-71
2021/03/17 02:17:37;;;;;;;3.45;2.05;;;5.90;99.90;;;;;;5093327;28;20292;-70
2021/03/17 02:20:37;;;;;;;2.67;2.10;;;5.90;99.90;;;;;;5093888;28;20288;-71
2021/03/17 02:23:11;;;;;;;2.45;1.85;;;6.00;99.90;;;;;;5093604;28;20233;-71
2021/03/17 02:25:58;;;;;;;4.35;2.50;;;5.90;99.90;;;;;;5094457;28;20278;-71
2021/03/17 02:28:43;;;;;;;2.58;1.85;;;6.00;99.90;;;;;;5093710;28;20221;-71
2021/03/17 02:31:35;;;;;;;3.80;2.28;;;5.90;99.90;;;;;;5094116;28;20647;-71
2021/03/17 02:34:07;;;;;;;3.05;2.30;;;5.90;99.90;;;;;;5094262;28;20222;-71
2021/03/17 02:36:37;;;;;;;2.90;2.03;;;6.00;99.90;;;;;;5093685;28;20573;-71
2021/03/17 02:39:07;;;;;;;3.15;1.95;;;5.90;99.90;;;;;;5094002;28;20203;-71
2021/03/17 02:41:41;;;;;;;2.97;1.95;;;5.90;99.90;;;;;;5093950;28;20220;-70
2021/03/17 02:44:13;;;;;;;2.28;2.08;;;5.90;99.90;;;;;;5094271;28;20307;-71
2021/03/17 02:46:41;;;;;;;2.83;2.20;;;5.90;99.90;;;;;;5093229;28;20301;-70
2021/03/17 02:49:15;;;;;;;2.90;2.10;;;5.60;99.90;;;;;;5093884;28;20542;-71
2021/03/17 02:51:45;;;;;;;2.00;1.80;;;5.60;99.90;;;;;;5093751;28;20202;-71
2021/03/17 02:54:14;;;;;;;2.25;1.85;;;5.60;99.90;;;;;;5093614;28;20227;-71
2021/03/17 02:56:45;;;;;;;2.35;1.92;;;5.70;99.90;;;;;;5093415;28;20551;-70
2021/03/17 02:59:15;;;;;;;2.70;2.10;;;5.70;99.90;;;;;;5093774;28;20236;-71
2021/03/17 03:01:43;;;;;;;2.58;1.80;;;5.80;99.90;;;;;;5093450;28;20202;-71
2021/03/17 03:04:12;;;;;;;5.07;1.98;;;5.80;99.90;;;;;;5097434;28;20222;-70
2021/03/17 03:06:41;;;;;;;2.88;1.80;;;5.80;99.90;;;;;;5096977;28;20296;-70
2021/03/17 03:09:09;;;;;;;3.05;2.15;;;5.80;99.90;;;;;;5096890;28;20198;-71
2021/03/17 03:11:36;;;;;;;2.15;1.95;;;5.90;99.90;;;;;;5097257;28;20202;-71
2021/03/17 03:14:04;;;;;;;3.20;2.00;;;6.00;99.90;;;;;;5096972;28;20226;-70
2021/03/17 03:16:32;;;;;;;4.55;2.30;;;5.90;99.90;;;;;;5096935;28;20206;-70
2021/03/17 03:19:01;;;;;;;2.63;1.80;;;5.90;99.90;;;;;;5096977;28;20201;-70
2021/03/17 03:21:29;;;;;;;3.10;2.20;;;5.80;99.90;;;;;;5097017;28;20202;-71
2021/03/17 03:23:57;;;;;;;2.60;2.00;;;5.80;99.90;;;;;;5096904;28;20226;-70
2021/03/17 03:26:25;;;;;;;3.45;1.98;;;5.90;99.90;;;;;;5096620;28;20721;-70
2021/03/17 03:28:53;;;;;;;2.47;1.80;;;5.80;99.90;;;;;;5096640;28;20248;-70
2021/03/17 03:31:20;;;;;;;3.40;1.73;;;5.70;99.90;;;;;;5096733;28;20625;-70
2021/03/17 03:33:47;;;;;;;2.38;1.77;;;5.70;99.90;;;;;;5096995;28;20308;-71
2021/03/17 03:36:13;;;;;;;4.25;1.77;;;5.70;99.90;;;;;;5096591;28;20426;-70
2021/03/17 03:38:41;;;;;;;3.60;1.90;;;5.50;99.90;;;;;;5096715;28;20194;-70
2021/03/17 03:41:07;;;;;;;3.42;1.70;;;5.60;99.90;;;;;;5096369;28;20309;-71
2021/03/17 03:43:34;;;;;;;3.03;1.90;;;5.70;99.90;;;;;;5096789;28;20222;-71
2021/03/17 03:46:01;;;;;;;2.72;2.00;;;5.70;99.90;;;;;;5096863;28;20297;-71
2021/03/17 03:48:27;;;;;;;2.13;1.92;;;5.50;99.90;;;;;;5096783;28;20303;-71
2021/03/17 03:50:54;;;;;;;1.63;1.40;;;5.60;99.90;;;;;;5096278;28;20559;-71
2021/03/17 03:53:34;;;;;;;3.33;2.30;;;5.60;99.90;;;;;;5096128;28;20217;-71
2021/03/17 03:56:05;;;;;;;3.28;1.80;;;5.40;99.90;;;;;;5096387;28;20208;-70
2021/03/17 03:58:40;;;;;;;4.70;2.10;;;5.30;99.90;;;;;;5095946;28;20285;-71
2021/03/17 04:01:09;;;;;;;2.75;2.22;;;5.40;99.90;;;;;;5096365;28;20202;-71
2021/03/17 04:03:41;;;;;;;5.15;2.45;;;5.50;99.90;;;;;;5095678;28;20226;-71
2021/03/17 04:06:10;;;;;;;3.72;1.85;;;5.60;99.90;;;;;;5096304;28;20202;-70
2021/03/17 04:08:38;;;;;;;3.97;2.45;;;5.60;99.90;;;;;;5096375;28;20316;-71
2021/03/17 04:11:08;;;;;;;2.70;2.22;;;5.60;99.90;;;;;;5096533;28;20202;-71
2021/03/17 04:13:37;;;;;;;3.28;2.10;;;5.40;99.90;;;;;;5095876;28;20714;-71
2021/03/17 04:16:04;;;;;;;3.15;2.65;;;5.40;99.90;;;;;;5095871;28;20209;-70
2021/03/17 04:18:33;;;;;;;2.60;2.05;;;5.40;99.90;;;;;;5095570;28;20201;-71
2021/03/17 04:21:03;;;;;;;5.68;2.85;;;5.50;99.90;;;;;;5095934;28;20234;-71
2021/03/17 04:23:31;;;;;;;4.20;2.90;;;5.30;99.90;;;;;;5095996;28;20313;-71
2021/03/17 04:26:00;;;;;;;3.90;2.85;;;5.20;99.90;;;;;;5095873;28;20205;-71
2021/03/17 04:28:29;;;;;;;4.40;2.83;;;5.20;99.90;;;;;;5096007;28;20218;-71
2021/03/17 04:31:00;;;;;;;3.78;2.60;;;5.20;99.90;;;;;;5096490;28;20613;-71
2021/03/17 04:33:28;;;;;;;3.60;3.13;;;5.00;99.90;;;;;;5096729;28;20313;-71
2021/03/17 04:35:57;;;;;;;2.67;1.92;;;5.00;99.90;;;;;;5096728;28;20274;-71
2021/03/17 04:38:26;;;;;;;3.90;2.92;;;5.00;99.90;;;;;;5097671;28;20204;-71
2021/03/17 04:40:54;;;;;;;3.25;2.55;;;5.00;99.90;;;;;;5097091;28;20206;-71
2021/03/17 04:43:21;;;;;;;5.05;3.10;;;5.10;99.90;;;;;;5096696;28;20232;-71
2021/03/17 04:45:49;;;;;;;6.07;3.70;;;5.20;99.90;;;;;;5095891;28;20301;-71
2021/03/17 04:48:16;;;;;;;4.28;3.00;;;5.20;99.90;;;;;;5096120;28;20230;-71
2021/03/17 04:50:45;;;;;;;5.28;3.50;;;5.20;99.90;;;;;;5097463;28;20278;-71
2021/03/17 04:53:12;;;;;;;7.40;4.10;;;5.20;99.90;;;;;;5096791;28;20226;-71
2021/03/17 04:55:39;;;;;;;6.20;3.75;;;5.20;99.90;;;;;;5097513;28;20293;-71
2021/03/17 04:58:09;;;;;;;3.90;3.00;;;5.20;99.90;;;;;;5096341;28;20201;-70
2021/03/17 05:00:37;;;;;;;4.72;3.83;;;5.00;99.90;;;;;;5096019;28;20209;-71
2021/03/17 05:03:08;;;;;;;4.88;3.17;;;5.00;99.90;;;;;;5095071;28;20222;-70
2021/03/17 05:05:38;;;;;;;5.78;4.13;;;5.20;99.90;;;;;;5095628;28;20202;-71
2021/03/17 05:08:06;;;;;;;5.75;3.35;;;5.10;99.90;;;;;;5095589;28;20218;-70
2021/03/17 05:10:33;;;;;;;5.75;3.92;;;4.90;99.90;;;;;;5096267;28;20206;-71
2021/03/17 05:13:00;;;;;;;7.35;3.55;;;5.00;99.90;;;;;;5095754;28;20217;-71
2021/03/17 05:15:27;;;;;;;9.20;4.07;;;5.10;99.90;;;;;;5096615;28;20244;-71
2021/03/17 05:17:54;;;;;;;8.80;4.55;;;5.10;99.90;;;;;;5095368;28;20202;-70
2021/03/17 05:20:25;;;;;;;8.68;5.20;;;5.10;99.90;;;;;;5094744;28;20293;-71
2021/03/17 05:22:52;;;;;;;7.78;4.10;;;5.20;99.90;;;;;;5095092;28;20228;-70
2021/03/17 05:25:20;;;;;;;8.48;4.70;;;5.30;99.90;;;;;;5094203;28;20228;-71
2021/03/17 05:27:49;;;;;;;8.15;4.10;;;5.30;99.90;;;;;;5094708;28;20226;-70
2021/03/17 05:30:17;;;;;;;6.93;3.50;;;5.20;99.90;;;;;;5094590;28;20198;-70
2021/03/17 05:32:46;;;;;;;6.80;4.60;;;5.20;99.90;;;;;;5094394;28;20695;-71
2021/03/17 05:35:13;;;;;;;7.53;4.70;;;5.20;99.90;;;;;;5095454;28;20202;-71
2021/03/17 05:37:40;;;;;;;8.93;5.03;;;5.30;99.90;;;;;;5094213;28;20194;-70
2021/03/17 05:40:09;;;;;;;7.65;4.55;;;4.90;99.90;;;;;;5094468;28;20558;-70
2021/03/17 05:42:37;;;;;;;8.25;4.88;;;5.00;99.90;;;;;;5094123;28;20218;-70
2021/03/17 05:45:08;;;;;;;10.77;5.50;;;5.20;99.90;;;;;;5094426;28;20217;-71
2021/03/17 05:47:34;;;;;;;10.23;4.80;;;5.30;99.90;;;;;;5093861;28;20729;-70
2021/03/17 05:50:01;;;;;;;7.65;4.55;;;5.30;99.90;;;;;;5094077;28;20208;-70
2021/03/17 05:52:29;;;;;;;10.35;5.50;;;5.30;99.90;;;;;;5094547;28;20221;-70
2021/03/17 05:54:56;;;;;;;12.63;5.60;;;5.20;99.90;;;;;;5094529;28;20206;-71
2021/03/17 05:57:23;;;;;;;9.93;5.60;;;5.10;99.90;;;;;;5094052;28;20205;-70
2021/03/17 05:59:49;;;;;;;14.10;6.53;;;5.10;99.90;;;;;;5094492;28;20206;-71
2021/03/17 06:02:16;;;;;;;9.10;4.50;;;5.10;99.90;;;;;;5094137;28;20332;-70
2021/03/17 06:04:43;;;;;;;10.57;5.80;;;5.20;99.90;;;;;;5094120;28;20202;-70
2021/03/17 06:07:14;;;;;;;12.93;6.32;;;5.20;99.90;;;;;;5094211;28;20220;-70
2021/03/17 06:09:44;;;;;;;9.05;5.50;;;5.20;99.90;;;;;;5094421;28;20216;-71
2021/03/17 06:12:12;;;;;;;13.50;6.50;;;5.20;99.90;;;;;;5094355;28;20309;-70
2021/03/17 06:14:40;;;;;;;11.25;6.05;;;5.30;99.90;;;;;;5094754;28;20332;-71
2021/03/17 06:17:12;;;;;;;11.57;7.00;;;5.20;99.90;;;;;;5093922;28;20202;-70
2021/03/17 06:19:42;;;;;;;10.23;6.05;;;5.30;99.90;;;;;;5093744;28;20197;-71
2021/03/17 06:22:09;;;;;;;11.23;5.70;;;5.40;99.90;;;;;;5094118;28;20202;-71
2021/03/17 06:24:36;;;;;;;10.52;4.70;;;5.20;99.90;;;;;;5094383;28;20668;-71
2021/03/17 06:27:04;;;;;;;11.90;6.03;;;5.20;99.90;;;;;;5094769;28;20212;-71
2021/03/17 06:29:31;;;;;;;15.38;7.97;;;5.00;99.90;;;;;;5095169;28;20236;-71
2021/03/17 06:31:57;;;;;;;9.38;5.80;;;5.00;99.90;;;;;;5094563;28;20339;-71
2021/03/17 06:34:24;;;;;;;11.20;6.47;;;4.90;99.90;;;;;;5094933;28;20209;-71
2021/03/17 06:36:52;;;;;;;9.90;5.70;;;5.00;99.90;;;;;;5095573;28;20198;-70
2021/03/17 06:39:20;;;;;;;13.55;6.10;;;5.10;99.90;;;;;;5097845;28;20214;-71
2021/03/17 06:41:49;;;;;;;11.20;6.30;;;5.20;99.90;;;;;;5097954;28;20202;-71
2021/03/17 06:44:23;;;;;;;11.15;5.80;;;5.00;99.90;;;;;;5097468;28;20251;-71
2021/03/17 06:47:17;;;;;;;13.27;6.53;;;5.10;99.90;;;;;;5097288;28;20245;-71
2021/03/17 06:49:46;;;;;;;18.67;7.20;;;5.30;99.90;;;;;;5098129;28;20205;-71
2021/03/17 06:52:29;;;;;;;14.57;6.90;;;5.40;99.90;;;;;;5097481;28;20263;-71
2021/03/17 06:55:15;;;;;;;13.20;6.32;;;5.40;99.90;;;;;;5097332;28;20260;-71
2021/03/17 06:57:45;;;;;;;14.98;7.45;;;5.40;99.90;;;;;;5097214;28;20251;-71
2021/03/17 07:00:30;;;;;;;12.98;7.05;;;5.50;99.90;;;;;;5097408;28;20206;-71
2021/03/17 07:03:00;;;;;;;14.43;7.85;;;5.50;99.90;;;;;;5097111;28;20318;-71
2021/03/17 07:05:35;;;;;;;16.73;7.00;;;5.50;99.90;;;;;;5097047;28;20202;-71
2021/03/17 07:08:03;;;;;;;14.00;7.20;;;5.40;99.90;;;;;;5096989;28;20222;-71
2021/03/17 07:10:31;;;;;;;13.27;6.63;;;5.50;99.90;;;;;;5097235;28;20209;-71
2021/03/17 07:13:00;;;;;;;13.02;6.80;;;5.60;99.90;;;;;;5096996;28;20588;-71
2021/03/17 07:15:26;;;;;;;11.30;6.82;;;5.70;99.90;;;;;;5096613;28;20285;-71
2021/03/17 07:17:54;;;;;;;13.07;7.57;;;5.80;99.90;;;;;;5096728;28;20206;-71
2021/03/17 07:20:42;;;;;;;12.88;6.97;;;5.90;99.90;;;;;;5096914;28;20206;-72
2021/03/17 07:23:25;;;;;;;14.50;7.10;;;5.80;99.90;;;;;;5096966;28;20226;-71
2021/03/17 07:26:22;;;;;;;13.60;7.07;;;5.90;99.90;;;;;;5097415;28;20279;-71
2021/03/17 07:29:03;;;;;;;14.80;6.40;;;5.90;99.90;;;;;;5096801;28;20264;-71
2021/03/17 07:31:31;;;;;;;12.50;6.50;;;5.90;99.90;;;;;;5097111;28;20233;-71
2021/03/17 07:34:16;;;;;;;13.55;5.78;;;5.90;99.90;;;;;;5097087;28;20228;-71
2021/03/17 07:36:47;;;;;;;10.82;5.35;;;6.10;99.90;;;;;;5096490;28;20734;-70
2021/03/17 07:39:17;;;;;;;10.63;6.70;;;6.20;99.90;;;;;;5096687;28;20288;-71
2021/03/17 07:41:44;;;;;;;12.48;5.90;;;6.30;99.90;;;;;;5096908;28;20300;-71
2021/03/17 07:44:12;;;;;;;11.18;6.60;;;6.40;99.90;;;;;;5096836;28;20225;-71
2021/03/17 07:46:40;;;;;;;14.13;7.40;;;6.40;99.90;;;;;;5095682;28;20287;-71
2021/03/17 07:49:08;;;;;;;11.82;6.45;;;6.20;99.90;;;;;;5095541;28;20232;-71
2021/03/17 07:51:38;;;;;;;13.30;7.00;;;6.20;99.90;;;;;;5096477;28;20297;-71
2021/03/17 07:54:08;;;;;;;11.30;6.53;;;6.40;99.90;;;;;;5096315;28;20294;-71
2021/03/17 07:56:34;;;;;;;14.10;6.95;;;6.40;99.90;;;;;;5095749;28;20198;-71
2021/03/17 07:59:02;;;;;;;9.20;6.28;;;6.50;99.90;;;;;;5096291;28;20204;-71
2021/03/17 08:01:29;;;;;;;11.88;6.55;;;6.50;99.90;;;;;;5095942;28;20202;-71
2021/03/17 08:03:57;;;;;;;12.77;5.82;;;6.50;99.90;;;;;;5096212;28;20229;-75
2021/03/17 08:06:23;;;;;;;13.05;6.50;;;6.40;99.90;;;;;;5086382;28;20672;-72
2021/03/17 08:08:50;;;;;;;13.35;6.80;;;6.50;99.90;;;;;;5077213;28;20317;-77
2021/03/17 08:11:19;;;;;;;11.65;6.10;;;6.50;99.90;;;;;;5076358;28;20299;-77
2021/03/17 08:13:48;;;;;;;9.18;5.68;;;6.50;99.90;;;;;;5076690;28;20309;-76
2021/03/17 08:16:20;;;;;;;10.02;5.90;;;6.20;99.90;;;;;;5074588;28;20212;-76
2021/03/17 08:18:48;;;;;;;9.65;5.60;;;6.30;99.90;;;;;;5074243;28;20293;-76
2021/03/17 08:21:15;;;;;;;7.70;4.85;;;6.30;99.90;;;;;;5073970;28;20210;-76
2021/03/17 08:23:44;;;;;;;7.05;3.90;;;6.50;99.90;;;;;;5073894;28;20219;-76
2021/03/17 08:26:12;;;;;;;7.82;4.88;;;6.80;99.90;;;;;;5073847;28;20214;-76
2021/03/17 08:28:50;;;;;;;9.40;4.45;;;7.00;99.90;;;;;;5073834;28;20607;-76
2021/03/17 08:31:48;;;;;;;7.40;3.80;;;6.80;99.90;;;;;;5074443;28;20597;-75
2021/03/17 08:34:26;;;;;;;7.18;4.03;;;7.10;99.90;;;;;;5073968;28;20230;-77
2021/03/17 08:36:53;;;;;;;9.75;4.55;;;6.80;99.90;;;;;;5073592;28;20257;-77
2021/03/17 08:39:45;;;;;;;6.95;4.78;;;6.70;99.90;;;;;;5073702;28;20194;-77
2021/03/17 08:42:14;;;;;;;11.45;4.90;;;7.10;99.90;;;;;;5074009;28;20599;-76
2021/03/17 08:44:47;;;;;;;9.82;5.20;;;7.10;99.90;;;;;;5073535;28;20330;-76
2021/03/17 08:47:16;;;;;;;12.55;5.70;;;7.00;99.90;;;;;;5074297;28;20222;-75
2021/03/17 08:49:44;;;;;;;11.75;6.07;;;6.90;99.90;;;;;;5075296;28;20301;-77
2021/03/17 08:52:12;;;;;;;7.10;4.60;;;6.90;99.90;;;;;;5074237;28;20293;-76
2021/03/17 08:55:09;;;;;;;10.27;6.05;;;7.10;99.90;;;;;;5074045;28;20670;-77
2021/03/17 08:57:55;;;;;;;8.43;4.88;;;7.00;99.90;;;;;;5074902;28;20285;-78
2021/03/17 09:00:46;;;;;;;8.55;5.10;;;7.20;99.90;;;;;;5074350;28;20211;-77
2021/03/17 09:03:37;;;;;;;14.80;7.25;;;7.30;99.90;;;;;;5075165;28;20226;-75
2021/03/17 09:06:10;;;;;;;9.25;5.00;;;7.70;99.90;;;;;;5074424;28;20198;-75
2021/03/17 09:08:54;;;;;;;14.43;5.15;;;7.60;99.90;;;;;;5075955;28;20311;-75
2021/03/17 09:11:54;;;;;;;10.57;5.95;;;7.40;99.90;;;;;;5074413;28;20217;-76
2021/03/17 09:14:27;;;;;;;7.38;4.47;;;7.40;99.90;;;;;;5074170;28;20199;-77
2021/03/17 09:17:26;;;;;;;7.35;4.55;;;7.80;99.90;;;;;;5073996;28;20231;-75
2021/03/17 09:20:00;;;;;;;7.88;4.47;;;8.00;99.90;;;;;;5075366;28;20207;-75
2021/03/17 09:22:39;;;;;;;8.88;4.38;;;8.00;99.90;;;;;;5074253;28;20724;-75
2021/03/17 09:25:19;;;;;;;13.18;4.85;;;7.80;99.90;;;;;;5074200;28;20599;-75
2021/03/17 09:27:48;;;;;;;4.85;3.70;;;7.90;99.90;;;;;;5073972;28;20237;-75
2021/03/17 09:30:16;;;;;;;6.20;3.38;;;7.90;99.90;;;;;;5074291;28;20289;-75
2021/03/17 09:32:44;;;;;;;5.75;3.53;;;8.00;99.90;;;;;;5074206;28;20226;-75
2021/03/17 09:35:12;;;;;;;4.03;2.70;;;8.10;99.70;;;;;;5073891;28;20241;-75
2021/03/17 09:37:38;;;;;;;5.00;3.33;;;8.00;98.90;;;;;;5073862;28;20290;-75
2021/03/17 09:40:07;;;;;;;4.45;2.92;;;8.10;98.80;;;;;;5074119;28;20298;-75
2021/03/17 09:42:36;;;;;;;7.32;3.90;;;8.00;97.90;;;;;;5073641;28;20756;-75
2021/03/17 09:45:04;;;;;;;6.05;3.78;;;8.10;99.60;;;;;;5074095;28;20241;-76
2021/03/17 09:47:31;;;;;;;3.75;2.63;;;8.10;98.30;;;;;;5073783;28;20223;-75
2021/03/17 09:49:58;;;;;;;4.25;2.90;;;7.80;95.90;;;;;;5075300;28;20729;-75
2021/03/17 09:52:25;;;;;;;3.72;2.25;;;7.00;96.10;;;;;;5073781;28;20317;-75
2021/03/17 09:54:52;;;;;;;5.20;2.50;;;6.80;97.60;;;;;;5075439;28;20205;-75
2021/03/17 09:57:19;;;;;;;4.53;2.58;;;6.80;98.50;;;;;;5075379;28;20203;-74
2021/03/17 09:59:46;;;;;;;4.65;2.50;;;6.80;98.50;;;;;;5075684;28;20669;-75
2021/03/17 10:02:16;;;;;;;5.07;2.83;;;7.00;97.50;;;;;;5074569;28;20225;-75
2021/03/17 10:04:45;;;;;;;4.32;2.85;;;7.20;98.70;;;;;;5074474;28;20253;-75
2021/03/17 10:07:14;;;;;;;4.95;3.03;;;7.40;98.70;;;;;;5073322;28;20669;-75
2021/03/17 10:09:42;;;;;;;4.97;3.22;;;8.00;99.60;;;;;;5073863;28;20593;-76
2021/03/17 10:12:11;;;;;;;7.38;3.22;;;8.70;97.00;;;;;;5076231;28;20260;-75
2021/03/17 10:14:40;;;;;;;4.50;2.42;;;8.70;94.00;;;;;;5078451;28;20632;-76
2021/03/17 10:17:08;;;;;;;5.00;2.80;;;8.60;95.40;;;;;;5077516;28;20203;-75
2021/03/17 10:19:36;;;;;;;3.72;2.65;;;8.70;94.20;;;;;;5077986;28;20194;-75
2021/03/17 10:22:03;;;;;;;4.80;2.53;;;8.50;94.10;;;;;;5077835;28;20305;-75
2021/03/17 10:24:38;;;;;;;4.15;2.75;;;8.40;94.00;;;;;;5078258;28;20203;-75
2021/03/17 10:27:07;;;;;;;3.15;2.22;;;8.30;94.20;;;;;;5077522;28;20245;-75
2021/03/17 10:29:34;;;;;;;3.65;2.63;;;8.30;96.10;;;;;;5077319;28;20233;-75
2021/03/17 10:32:03;;;;;;;4.55;3.10;;;8.70;97.00;;;;;;5077384;28;20207;-75
2021/03/17 10:34:29;;;;;;;6.32;3.17;;;8.60;95.30;;;;;;5077646;28;20293;-75
2021/03/17 10:36:57;;;;;;;4.57;2.67;;;8.60;95.70;;;;;;5076877;28;20290;-75
2021/03/17 10:39:29;;;;;;;4.10;2.70;;;8.90;95.40;;;;;;5077686;28;20199;-75
2021/03/17 10:41:57;;;;;;;3.50;2.50;;;8.40;95.70;;;;;;5077425;28;20301;-75
2021/03/17 10:44:25;;;;;;;2.22;1.73;;;8.40;95.40;;;;;;5077151;28;20530;-75
2021/03/17 10:47:09;;;;;;;3.28;2.60;;;8.50;94.90;;;;;;5076662;28;20301;-75
2021/03/17 10:49:37;;;;;;;4.32;2.85;;;8.50;95.10;;;;;;5077240;28;20222;-75
2021/03/17 10:52:04;;;;;;;4.47;2.70;;;8.80;95.80;;;;;;5077189;28;20289;-76
2021/03/17 10:54:35;;;;;;;4.50;2.55;;;9.20;94.70;;;;;;5076860;28;20210;-76
2021/03/17 10:57:04;;;;;;;3.80;2.63;;;9.50;94.10;;;;;;5077223;28;20214;-75
2021/03/17 10:59:32;;;;;;;3.92;2.65;;;9.60;92.20;;;;;;5076690;28;20203;-76
2021/03/17 11:02:21;;;;;;;4.53;2.00;;;9.40;93.60;;;;;;5076840;28;20250;-75
2021/03/17 11:05:27;;;;;;;3.10;2.60;;;9.40;93.60;;;;;;5076631;28;20294;-75
2021/03/17 11:07:59;;;;;;;5.32;3.60;;;9.20;93.80;;;;;;5061133;28;20233;-75
2021/03/17 11:10:48;;;;;;;3.45;2.58;;;8.70;95.50;;;;;;5077524;28;20720;-75
2021/03/17 11:13:30;;;;;;;5.13;3.40;;;8.50;96.50;;;;;;5076991;28;20313;-75
2021/03/17 11:15:59;;;;;;;4.70;2.95;;;8.50;97.00;;;;;;5077134;28;20257;-75
2021/03/17 11:18:27;;;;;;;4.85;3.50;;;8.50;97.90;;;;;;5077116;28;20199;-75
2021/03/17 11:20:55;;;;;;;5.03;3.30;;;8.50;98.50;;;;;;5076739;28;20202;-75
2021/03/17 11:23:24;;;;;;;6.60;3.80;;;8.50;99.00;;;;;;5075287;28;20773;-75
2021/03/17 11:25:51;;;;;;;3.60;3.25;;;8.50;99.10;;;;;;5076107;28;20207;-75
2021/03/17 11:28:20;;;;;;;6.82;3.58;;;8.40;99.30;;;;;;5076229;28;20229;-75
2021/03/17 11:30:50;;;;;;;5.68;3.38;;;8.20;99.50;;;;;;5076401;28;20203;-75
2021/03/17 11:33:17;;;;;;;7.07;4.15;;;8.10;99.90;;;;;;5076202;28;20233;-75
2021/03/17 11:35:46;;;;;;;7.93;3.80;;;8.00;99.90;;;;;;5076923;28;20202;-75
2021/03/17 11:38:14;;;;;;;5.72;3.38;;;8.00;99.90;;;;;;5076087;28;20213;-75
2021/03/17 11:40:41;;;;;;;5.80;3.58;;;7.90;99.90;;;;;;5076268;28;20640;-75
2021/03/17 11:43:10;;;;;;;5.68;3.50;;;8.00;99.90;;;;;;5075958;28;20329;-75
2021/03/17 11:45:37;;;;;;;5.60;3.30;;;8.00;99.90;;;;;;5076022;28;20599;-75
2021/03/17 11:48:05;;;;;;;6.05;3.85;;;7.80;99.90;;;;;;5075845;28;20230;-75
2021/03/17 11:50:32;;;;;;;7.28;4.20;;;7.50;99.90;;;;;;5077319;28;20207;-75
2021/03/17 11:52:58;;;;;;;5.03;3.72;;;7.10;99.90;;;;;;5077113;28;20222;-75
2021/03/17 11:55:28;;;;;;;8.05;3.90;;;6.80;99.90;;;;;;5076821;28;20725;-75
2021/03/17 11:57:54;;;;;;;7.88;3.70;;;6.50;99.90;;;;;;5077318;28;20578;-74
2021/03/17 12:00:21;;;;;;;5.60;3.15;;;6.30;99.90;;;;;;5078203;28;20213;-75
2021/03/17 12:02:48;;;;;;;6.78;3.10;;;6.10;99.90;;;;;;5078294;28;20227;-75
2021/03/17 12:05:16;;;;;;;7.35;3.88;;;6.00;99.90;;;;;;5077663;28;20209;-75
2021/03/17 12:07:43;;;;;;;5.25;3.72;;;5.80;99.90;;;;;;5077820;28;20209;-75
2021/03/17 12:10:12;;;;;;;10.40;3.90;;;5.70;99.90;;;;;;5077869;28;20203;-75
2021/03/17 12:12:38;;;;;;;7.18;3.65;;;5.50;99.90;;;;;;5077106;28;20230;-75
2021/03/17 12:15:08;;;;;;;5.95;3.80;;;5.20;99.90;;;;;;5078167;28;20199;-75
2021/03/17 12:17:35;;;;;;;7.50;3.90;;;5.30;99.90;;;;;;5077003;28;20213;-75
2021/03/17 12:20:01;;;;;;;8.98;4.35;;;5.30;99.90;;;;;;5076815;28;20293;-75
2021/03/17 12:22:28;;;;;;;7.07;3.47;;;5.30;99.90;;;;;;5076370;28;20313;-74
2021/03/17 12:24:55;;;;;;;7.38;3.60;;;5.00;99.90;;;;;;5076873;28;20206;-75
2021/03/17 12:27:24;;;;;;;8.73;4.10;;;5.00;99.90;;;;;;5076124;28;20572;-75
2021/03/17 12:29:50;;;;;;;6.13;3.72;;;5.00;99.90;;;;;;5076517;28;20206;-75
2021/03/17 12:32:18;;;;;;;8.10;3.70;;;5.00;99.90;;;;;;5076163;28;20222;-75
2021/03/17 12:34:44;;;;;;;5.63;4.32;;;4.90;99.90;;;;;;5076676;28;20238;-75
2021/03/17 12:37:11;;;;;;;6.43;3.65;;;5.00;99.90;;;;;;5076409;28;20249;-74
2021/03/17 12:39:39;;;;;;;7.82;3.60;;;5.00;99.90;;;;;;5076170;28;20202;-75
2021/03/17 12:42:06;;;;;;;7.32;3.80;;;4.90;99.90;;;;;;5076871;28;20207;-74
2021/03/17 12:44:33;;;;;;;8.80;4.53;;;4.90;99.90;;;;;;5076241;28;20242;-75
2021/03/17 12:47:00;;;;;;;9.88;4.88;;;4.70;99.90;;;;;;5075751;28;20262;-75
2021/03/17 12:49:27;;;;;;;6.15;3.90;;;4.60;99.90;;;;;;5076016;28;20624;-75
2021/03/17 12:51:53;;;;;;;6.05;3.90;;;4.70;99.90;;;;;;5075729;28;20198;-75
2021/03/17 12:54:20;;;;;;;8.18;3.65;;;4.60;99.90;;;;;;5076820;28;20198;-75
2021/03/17 12:56:47;;;;;;;8.68;4.50;;;4.70;99.90;;;;;;5075601;28;20224;-74
2021/03/17 12:59:13;;;;;;;8.23;4.13;;;4.60;99.90;;;;;;5074820;28;20210;-75
2021/03/17 13:01:40;;;;;;;8.35;4.95;;;4.50;99.90;;;;;;5076112;28;20298;-75
2021/03/17 13:04:06;;;;;;;6.68;4.22;;;4.60;99.90;;;;;;5076892;28;20296;-75
2021/03/17 13:06:33;;;;;;;5.70;3.45;;;4.70;99.90;;;;;;5075771;28;20211;-74
2021/03/17 13:09:02;;;;;;;6.97;4.05;;;4.90;99.90;;;;;;5077676;28;20225;-75